sensor_id;sensor_type;location;lat;lon;timestamp;pressure;altitude;pressure_sealevel;temperature;humidity
50302;BME280;36550;50.472;19.744;2022-11-20T00:02:23;97779.70;;;-5.49;72.68
50302;BME280;36550;50.472;19.744;2022-11-20T00:05:08;97779.18;;;-5.52;72.72
50302;BME280;36550;50.472;19.744;2022-11-20T00:07:52;97774.91;;;-5.48;72.91
50302;BME280;36550;50.472;19.744;2022-11-20T00:10:38;97778.22;;;-5.51;72.82
50302;BME280;36550;50.472;19.744;2022-11-20T00:13:23;97775.66;;;-5.51;72.92
50302;BME280;36550;50.472;19.744;2022-11-20T00:16:09;97773.19;;;-5.47;73.18
50302;BME280;36550;50.472;19.744;2022-11-20T00:18:54;97771.77;;;-5.46;73.09
50302;BME280;36550;50.472;19.744;2022-11-20T00:21:39;97770.09;;;-5.51;73.07
50302;BME280;36550;50.472;19.744;2022-11-20T00:24:23;97776.57;;;-5.56;72.98
50302;BME280;36550;50.472;19.744;2022-11-20T00:27:07;97772.34;;;-5.62;72.82
50302;BME280;36550;50.472;19.744;2022-11-20T00:29:51;97770.70;;;-5.63;72.90
50302;BME280;36550;50.472;19.744;2022-11-20T00:32:36;97773.93;;;-5.61;72.92
50302;BME280;36550;50.472;19.744;2022-11-20T00:35:20;97771.59;;;-5.58;72.93
50302;BME280;36550;50.472;19.744;2022-11-20T00:38:04;97770.31;;;-5.58;72.82
50302;BME280;36550;50.472;19.744;2022-11-20T00:40:54;97775.82;;;-5.63;72.69
50302;BME280;36550;50.472;19.744;2022-11-20T00:43:43;97776.04;;;-5.60;72.87
50302;BME280;36550;50.472;19.744;2022-11-20T00:46:27;97783.09;;;-5.58;72.93
50302;BME280;36550;50.472;19.744;2022-11-20T00:49:11;97784.23;;;-5.56;72.76
50302;BME280;36550;50.472;19.744;2022-11-20T00:51:56;97785.52;;;-5.56;72.69
50302;BME280;36550;50.472;19.744;2022-11-20T00:54:40;97779.05;;;-5.61;72.46
50302;BME280;36550;50.472;19.744;2022-11-20T00:57:24;97782.87;;;-5.61;72.57
50302;BME280;36550;50.472;19.744;2022-11-20T01:00:09;97778.73;;;-5.62;72.47
50302;BME280;36550;50.472;19.744;2022-11-20T01:02:55;97776.56;;;-5.66;72.32
50302;BME280;36550;50.472;19.744;2022-11-20T01:05:40;97771.53;;;-5.72;72.26
50302;BME280;36550;50.472;19.744;2022-11-20T01:08:24;97768.92;;;-5.76;72.22
50302;BME280;36550;50.472;19.744;2022-11-20T01:11:11;97776.13;;;-5.85;72.02
50302;BME280;36550;50.472;19.744;2022-11-20T01:13:58;97770.41;;;-5.83;72.36
50302;BME280;36550;50.472;19.744;2022-11-20T01:16:48;97773.98;;;-5.80;72.41
50302;BME280;36550;50.472;19.744;2022-11-20T01:19:33;97769.93;;;-5.83;72.28
50302;BME280;36550;50.472;19.744;2022-11-20T01:22:18;97762.61;;;-5.82;72.25
50302;BME280;36550;50.472;19.744;2022-11-20T01:25:02;97761.41;;;-5.87;72.04
50302;BME280;36550;50.472;19.744;2022-11-20T01:27:46;97761.80;;;-5.92;72.02
50302;BME280;36550;50.472;19.744;2022-11-20T01:30:31;97756.70;;;-5.92;72.12
50302;BME280;36550;50.472;19.744;2022-11-20T01:33:15;97755.82;;;-5.87;72.38
50302;BME280;36550;50.472;19.744;2022-11-20T01:36:04;97746.75;;;-5.85;72.30
50302;BME280;36550;50.472;19.744;2022-11-20T01:38:58;97741.17;;;-5.94;71.91
50302;BME280;36550;50.472;19.744;2022-11-20T01:41:44;97734.77;;;-5.98;71.92
50302;BME280;36550;50.472;19.744;2022-11-20T01:44:57;97739.20;;;-6.01;71.92
50302;BME280;36550;50.472;19.744;2022-11-20T01:47:46;97733.36;;;-5.97;72.11
50302;BME280;36550;50.472;19.744;2022-11-20T01:50:30;97736.71;;;-5.96;72.08
50302;BME280;36550;50.472;19.744;2022-11-20T01:53:18;97733.80;;;-5.97;72.13
50302;BME280;36550;50.472;19.744;2022-11-20T01:56:08;97732.59;;;-5.93;72.32
50302;BME280;36550;50.472;19.744;2022-11-20T01:58:56;97730.08;;;-5.89;72.37
50302;BME280;36550;50.472;19.744;2022-11-20T02:01:42;97731.89;;;-5.86;72.39
50302;BME280;36550;50.472;19.744;2022-11-20T02:04:27;97731.14;;;-5.92;72.07
50302;BME280;36550;50.472;19.744;2022-11-20T02:07:11;97730.16;;;-5.95;72.14
50302;BME280;36550;50.472;19.744;2022-11-20T02:09:56;97739.91;;;-5.94;72.25
50302;BME280;36550;50.472;19.744;2022-11-20T02:12:40;97733.91;;;-5.89;72.41
50302;BME280;36550;50.472;19.744;2022-11-20T02:15:44;97735.86;;;-5.87;72.41
50302;BME280;36550;50.472;19.744;2022-11-20T02:18:29;97728.51;;;-5.86;72.28
50302;BME280;36550;50.472;19.744;2022-11-20T02:21:27;97736.39;;;-5.84;72.35
50302;BME280;36550;50.472;19.744;2022-11-20T02:24:19;97733.30;;;-5.87;72.13
50302;BME280;36550;50.472;19.744;2022-11-20T02:27:09;97733.86;;;-5.93;71.85
50302;BME280;36550;50.472;19.744;2022-11-20T02:30:00;97744.85;;;-5.97;71.73
50302;BME280;36550;50.472;19.744;2022-11-20T02:32:46;97748.59;;;-6.01;71.70
50302;BME280;36550;50.472;19.744;2022-11-20T02:38:21;97754.59;;;-5.96;71.91
50302;BME280;36550;50.472;19.744;2022-11-20T02:41:05;97756.38;;;-5.93;71.97
50302;BME280;36550;50.472;19.744;2022-11-20T02:43:50;97760.69;;;-5.93;71.73
50302;BME280;36550;50.472;19.744;2022-11-20T02:46:34;97755.47;;;-6.02;71.49
50302;BME280;36550;50.472;19.744;2022-11-20T02:49:18;97751.89;;;-6.05;71.59
50302;BME280;36550;50.472;19.744;2022-11-20T02:52:03;97757.30;;;-6.08;71.61
50302;BME280;36550;50.472;19.744;2022-11-20T02:54:47;97750.75;;;-6.06;71.94
50302;BME280;36550;50.472;19.744;2022-11-20T02:57:31;97754.80;;;-6.04;72.09
50302;BME280;36550;50.472;19.744;2022-11-20T03:00:16;97747.94;;;-6.03;72.15
50302;BME280;36550;50.472;19.744;2022-11-20T03:03:01;97749.27;;;-5.99;72.31
50302;BME280;36550;50.472;19.744;2022-11-20T03:05:45;97753.02;;;-5.93;72.39
50302;BME280;36550;50.472;19.744;2022-11-20T03:08:29;97754.62;;;-5.92;72.33
50302;BME280;36550;50.472;19.744;2022-11-20T03:11:14;97749.38;;;-5.91;72.37
50302;BME280;36550;50.472;19.744;2022-11-20T03:14:04;97757.05;;;-5.91;72.30
50302;BME280;36550;50.472;19.744;2022-11-20T03:16:48;97751.59;;;-5.92;72.27
50302;BME280;36550;50.472;19.744;2022-11-20T03:19:33;97752.84;;;-5.96;71.95
50302;BME280;36550;50.472;19.744;2022-11-20T03:22:18;97752.30;;;-6.00;71.84
50302;BME280;36550;50.472;19.744;2022-11-20T03:25:02;97748.01;;;-6.09;71.63
50302;BME280;36550;50.472;19.744;2022-11-20T03:27:47;97745.12;;;-6.20;71.68
50302;BME280;36550;50.472;19.744;2022-11-20T03:30:31;97739.60;;;-6.25;71.79
50302;BME280;36550;50.472;19.744;2022-11-20T03:33:15;97744.52;;;-6.27;71.74
50302;BME280;36550;50.472;19.744;2022-11-20T03:36:05;97747.94;;;-6.32;71.69
50302;BME280;36550;50.472;19.744;2022-11-20T03:38:53;97750.01;;;-6.32;71.85
50302;BME280;36550;50.472;19.744;2022-11-20T03:41:40;97744.72;;;-6.34;71.79
50302;BME280;36550;50.472;19.744;2022-11-20T03:44:25;97743.77;;;-6.43;71.60
50302;BME280;36550;50.472;19.744;2022-11-20T03:47:09;97740.67;;;-6.47;71.71
50302;BME280;36550;50.472;19.744;2022-11-20T03:49:54;97737.92;;;-6.40;72.16
50302;BME280;36550;50.472;19.744;2022-11-20T03:52:39;97735.23;;;-6.28;72.46
50302;BME280;36550;50.472;19.744;2022-11-20T03:55:23;97736.39;;;-6.17;72.71
50302;BME280;36550;50.472;19.744;2022-11-20T03:58:08;97734.57;;;-6.11;72.67
50302;BME280;36550;50.472;19.744;2022-11-20T04:00:52;97737.52;;;-6.15;72.21
50302;BME280;36550;50.472;19.744;2022-11-20T04:03:38;97730.46;;;-6.17;72.20
50302;BME280;36550;50.472;19.744;2022-11-20T04:06:28;97729.47;;;-6.21;72.09
50302;BME280;36550;50.472;19.744;2022-11-20T04:09:12;97723.30;;;-6.28;71.88
50302;BME280;36550;50.472;19.744;2022-11-20T04:11:56;97730.35;;;-6.35;71.72
50302;BME280;36550;50.472;19.744;2022-11-20T04:14:40;97727.30;;;-6.45;71.50
50302;BME280;36550;50.472;19.744;2022-11-20T04:17:25;97723.88;;;-6.59;71.36
50302;BME280;36550;50.472;19.744;2022-11-20T04:20:09;97719.58;;;-6.68;71.40
50302;BME280;36550;50.472;19.744;2022-11-20T04:22:54;97713.39;;;-6.75;71.43
50302;BME280;36550;50.472;19.744;2022-11-20T04:25:39;97720.55;;;-6.85;71.46
50302;BME280;36550;50.472;19.744;2022-11-20T04:28:23;97714.81;;;-6.92;71.46
50302;BME280;36550;50.472;19.744;2022-11-20T04:31:09;97712.31;;;-6.98;71.63
50302;BME280;36550;50.472;19.744;2022-11-20T04:33:58;97710.37;;;-7.00;71.78
50302;BME280;36550;50.472;19.744;2022-11-20T04:36:43;97709.27;;;-7.07;71.69
50302;BME280;36550;50.472;19.744;2022-11-20T04:39:27;97710.30;;;-7.04;71.94
50302;BME280;36550;50.472;19.744;2022-11-20T04:42:12;97707.51;;;-6.91;72.46
50302;BME280;36550;50.472;19.744;2022-11-20T04:45:14;97703.78;;;-6.78;72.68
50302;BME280;36550;50.472;19.744;2022-11-20T04:47:58;97703.31;;;-6.67;72.66
50302;BME280;36550;50.472;19.744;2022-11-20T04:50:42;97698.48;;;-6.61;72.62
50302;BME280;36550;50.472;19.744;2022-11-20T04:53:27;97690.96;;;-6.62;72.27
50302;BME280;36550;50.472;19.744;2022-11-20T04:56:12;97691.09;;;-6.64;72.18
50302;BME280;36550;50.472;19.744;2022-11-20T04:58:59;97686.12;;;-6.65;72.23
50302;BME280;36550;50.472;19.744;2022-11-20T05:01:45;97681.11;;;-6.61;72.30
50302;BME280;36550;50.472;19.744;2022-11-20T05:04:29;97679.67;;;-6.60;72.28
50302;BME280;36550;50.472;19.744;2022-11-20T05:07:13;97673.16;;;-6.58;72.22
50302;BME280;36550;50.472;19.744;2022-11-20T05:09:58;97672.02;;;-6.60;72.22
50302;BME280;36550;50.472;19.744;2022-11-20T05:12:42;97676.52;;;-6.67;72.00
50302;BME280;36550;50.472;19.744;2022-11-20T05:15:26;97681.62;;;-6.67;72.15
50302;BME280;36550;50.472;19.744;2022-11-20T05:18:10;97678.14;;;-6.66;72.16
50302;BME280;36550;50.472;19.744;2022-11-20T05:20:57;97677.53;;;-6.64;72.10
50302;BME280;36550;50.472;19.744;2022-11-20T05:23:42;97671.73;;;-6.76;71.82
50302;BME280;36550;50.472;19.744;2022-11-20T05:26:27;97670.81;;;-6.85;71.99
50302;BME280;36550;50.472;19.744;2022-11-20T05:29:12;97672.66;;;-6.87;72.03
50302;BME280;36550;50.472;19.744;2022-11-20T05:31:56;97675.37;;;-6.88;72.02
50302;BME280;36550;50.472;19.744;2022-11-20T05:34:40;97673.87;;;-6.91;71.88
50302;BME280;36550;50.472;19.744;2022-11-20T05:37:25;97669.59;;;-6.90;71.99
50302;BME280;36550;50.472;19.744;2022-11-20T05:40:10;97666.56;;;-6.90;71.95
50302;BME280;36550;50.472;19.744;2022-11-20T05:42:55;97662.07;;;-6.92;71.92
50302;BME280;36550;50.472;19.744;2022-11-20T05:45:39;97668.03;;;-6.87;72.07
50302;BME280;36550;50.472;19.744;2022-11-20T05:48:23;97664.75;;;-6.84;72.10
50302;BME280;36550;50.472;19.744;2022-11-20T05:51:10;97664.62;;;-6.82;72.04
50302;BME280;36550;50.472;19.744;2022-11-20T05:53:58;97664.27;;;-6.83;72.03
50302;BME280;36550;50.472;19.744;2022-11-20T05:56:42;97663.89;;;-6.88;71.85
50302;BME280;36550;50.472;19.744;2022-11-20T05:59:27;97667.05;;;-6.90;71.87
50302;BME280;36550;50.472;19.744;2022-11-20T06:02:11;97663.00;;;-6.93;71.89
50302;BME280;36550;50.472;19.744;2022-11-20T06:04:55;97663.25;;;-6.96;71.89
50302;BME280;36550;50.472;19.744;2022-11-20T06:07:39;97666.69;;;-7.01;71.77
50302;BME280;36550;50.472;19.744;2022-11-20T06:10:24;97660.63;;;-7.00;71.86
50302;BME280;36550;50.472;19.744;2022-11-20T06:13:09;97658.25;;;-6.92;72.19
50302;BME280;36550;50.472;19.744;2022-11-20T06:15:53;97662.61;;;-6.79;72.55
50302;BME280;36550;50.472;19.744;2022-11-20T06:18:38;97651.95;;;-6.68;72.64
50302;BME280;36550;50.472;19.744;2022-11-20T06:21:23;97660.40;;;-6.58;72.69
50302;BME280;36550;50.472;19.744;2022-11-20T06:24:11;97657.03;;;-6.49;72.66
50302;BME280;36550;50.472;19.744;2022-11-20T06:26:55;97662.06;;;-6.43;72.58
50302;BME280;36550;50.472;19.744;2022-11-20T06:29:40;97657.79;;;-6.43;72.38
50302;BME280;36550;50.472;19.744;2022-11-20T06:32:24;97654.41;;;-6.43;72.27
50302;BME280;36550;50.472;19.744;2022-11-20T06:35:09;97660.33;;;-6.33;72.59
50302;BME280;36550;50.472;19.744;2022-11-20T06:37:53;97664.56;;;-6.28;72.38
50302;BME280;36550;50.472;19.744;2022-11-20T06:40:40;97657.72;;;-6.37;71.83
50302;BME280;36550;50.472;19.744;2022-11-20T06:43:24;97655.61;;;-6.37;71.82
50302;BME280;36550;50.472;19.744;2022-11-20T06:46:10;97663.36;;;-6.33;71.97
50302;BME280;36550;50.472;19.744;2022-11-20T06:48:55;97663.52;;;-6.21;72.40
50302;BME280;36550;50.472;19.744;2022-11-20T06:51:39;97664.59;;;-6.14;72.42
50302;BME280;36550;50.472;19.744;2022-11-20T06:54:23;97661.08;;;-6.03;72.73
50302;BME280;36550;50.472;19.744;2022-11-20T06:57:08;97663.75;;;-5.81;73.10
50302;BME280;36550;50.472;19.744;2022-11-20T06:59:52;97667.09;;;-5.71;72.93
50302;BME280;36550;50.472;19.744;2022-11-20T07:02:36;97670.31;;;-5.69;72.60
50302;BME280;36550;50.472;19.744;2022-11-20T07:05:21;97666.82;;;-5.68;72.31
50302;BME280;36550;50.472;19.744;2022-11-20T07:08:05;97664.58;;;-5.67;72.22
50302;BME280;36550;50.472;19.744;2022-11-20T07:10:50;97653.65;;;-5.59;72.44
50302;BME280;36550;50.472;19.744;2022-11-20T07:13:35;97649.88;;;-5.41;72.90
50302;BME280;36550;50.472;19.744;2022-11-20T07:16:19;97645.74;;;-5.24;73.12
50302;BME280;36550;50.472;19.744;2022-11-20T07:19:04;97645.13;;;-5.08;73.26
50302;BME280;36550;50.472;19.744;2022-11-20T07:21:48;97650.38;;;-4.96;73.27
50302;BME280;36550;50.472;19.744;2022-11-20T07:24:32;97655.31;;;-4.80;73.35
50302;BME280;36550;50.472;19.744;2022-11-20T07:27:17;97646.95;;;-4.69;73.36
50302;BME280;36550;50.472;19.744;2022-11-20T07:30:03;97645.77;;;-4.56;73.48
50302;BME280;36550;50.472;19.744;2022-11-20T07:32:52;97650.22;;;-4.40;73.67
50302;BME280;36550;50.472;19.744;2022-11-20T07:35:38;97648.84;;;-4.31;73.64
50302;BME280;36550;50.472;19.744;2022-11-20T07:38:22;97644.08;;;-4.26;73.47
50302;BME280;36550;50.472;19.744;2022-11-20T07:41:06;97645.27;;;-4.16;73.52
50302;BME280;36550;50.472;19.744;2022-11-20T07:43:51;97640.70;;;-4.08;73.58
50302;BME280;36550;50.472;19.744;2022-11-20T07:46:35;97640.88;;;-4.01;73.58
50302;BME280;36550;50.472;19.744;2022-11-20T07:49:19;97643.51;;;-3.93;73.78
50302;BME280;36550;50.472;19.744;2022-11-20T07:52:04;97649.02;;;-3.80;73.97
50302;BME280;36550;50.472;19.744;2022-11-20T07:54:48;97649.58;;;-3.68;73.98
50302;BME280;36550;50.472;19.744;2022-11-20T07:57:32;97641.41;;;-3.68;73.94
50302;BME280;36550;50.472;19.744;2022-11-20T08:00:17;97643.67;;;-3.64;73.85
50302;BME280;36550;50.472;19.744;2022-11-20T08:03:03;97652.30;;;-3.70;73.89
50302;BME280;36550;50.472;19.744;2022-11-20T08:05:48;97651.17;;;-3.67;74.04
50302;BME280;36550;50.472;19.744;2022-11-20T08:08:32;97656.81;;;-3.59;74.20
50302;BME280;36550;50.472;19.744;2022-11-20T08:11:16;97651.59;;;-3.50;74.35
50302;BME280;36550;50.472;19.744;2022-11-20T08:14:19;97656.89;;;-3.43;74.50
50302;BME280;36550;50.472;19.744;2022-11-20T08:17:03;97655.01;;;-3.37;74.55
50302;BME280;36550;50.472;19.744;2022-11-20T08:31:49;97652.47;;;-2.24;75.05
50302;BME280;36550;50.472;19.744;2022-11-20T08:34:34;97660.01;;;-2.06;74.98
50302;BME280;36550;50.472;19.744;2022-11-20T08:37:19;97661.61;;;-1.97;74.63
50302;BME280;36550;50.472;19.744;2022-11-20T08:40:05;97651.63;;;-1.88;74.59
50302;BME280;36550;50.472;19.744;2022-11-20T08:42:50;97648.23;;;-1.92;74.50
50302;BME280;36550;50.472;19.744;2022-11-20T08:45:34;97648.40;;;-1.86;74.77
50302;BME280;36550;50.472;19.744;2022-11-20T08:48:19;97648.06;;;-1.79;74.94
50302;BME280;36550;50.472;19.744;2022-11-20T08:51:03;97649.67;;;-1.73;74.96
50302;BME280;36550;50.472;19.744;2022-11-20T08:53:48;97646.90;;;-1.64;75.16
50302;BME280;36550;50.472;19.744;2022-11-20T08:56:32;97645.11;;;-1.55;75.18
50302;BME280;36550;50.472;19.744;2022-11-20T08:59:16;97647.34;;;-1.48;75.19
50302;BME280;36550;50.472;19.744;2022-11-20T09:02:01;97643.11;;;-1.37;75.30
50302;BME280;36550;50.472;19.744;2022-11-20T09:04:45;97639.37;;;-1.26;75.44
50302;BME280;36550;50.472;19.744;2022-11-20T09:07:29;97633.34;;;-1.14;75.48
50302;BME280;36550;50.472;19.744;2022-11-20T09:10:14;97627.48;;;-1.00;75.48
50302;BME280;36550;50.472;19.744;2022-11-20T09:12:58;97630.02;;;-0.91;75.36
50302;BME280;36550;50.472;19.744;2022-11-20T09:15:42;97633.13;;;-0.77;75.37
50302;BME280;36550;50.472;19.744;2022-11-20T09:18:28;97633.72;;;-0.67;75.33
50302;BME280;36550;50.472;19.744;2022-11-20T09:21:13;97631.72;;;-0.56;75.35
50302;BME280;36550;50.472;19.744;2022-11-20T09:23:57;97631.61;;;-0.44;75.32
50302;BME280;36550;50.472;19.744;2022-11-20T09:26:41;97629.27;;;-0.35;75.08
50302;BME280;36550;50.472;19.744;2022-11-20T09:29:26;97627.80;;;-0.29;74.99
50302;BME280;36550;50.472;19.744;2022-11-20T09:32:10;97622.39;;;-0.20;75.04
50302;BME280;36550;50.472;19.744;2022-11-20T09:34:54;97620.34;;;-0.09;75.09
50302;BME280;36550;50.472;19.744;2022-11-20T09:37:39;97618.50;;;-0.01;74.82
50302;BME280;36550;50.472;19.744;2022-11-20T09:40:29;97625.67;;;0.08;74.06
50302;BME280;36550;50.472;19.744;2022-11-20T09:43:50;97619.95;;;0.17;73.86
50302;BME280;36550;50.472;19.744;2022-11-20T09:46:52;97625.91;;;0.32;73.70
50302;BME280;36550;50.472;19.744;2022-11-20T09:49:51;97618.92;;;0.52;73.16
50302;BME280;36550;50.472;19.744;2022-11-20T09:52:41;97615.37;;;0.64;72.69
50302;BME280;36550;50.472;19.744;2022-11-20T09:55:31;97607.72;;;0.70;71.99
50302;BME280;36550;50.472;19.744;2022-11-20T10:01:18;97607.13;;;0.79;71.77
50302;BME280;36550;50.472;19.744;2022-11-20T10:04:05;97609.84;;;0.92;70.85
50302;BME280;36550;50.472;19.744;2022-11-20T10:07:13;97614.47;;;1.08;70.86
50302;BME280;36550;50.472;19.744;2022-11-20T10:09:59;97619.36;;;1.18;69.87
50302;BME280;36550;50.472;19.744;2022-11-20T10:22:56;97613.02;;;1.42;69.71
50302;BME280;36550;50.472;19.744;2022-11-20T10:26:16;97599.70;;;1.56;69.94
50302;BME280;36550;50.472;19.744;2022-11-20T10:29:12;97602.95;;;1.64;69.99
50302;BME280;36550;50.472;19.744;2022-11-20T10:32:02;97604.00;;;1.59;68.97
50302;BME280;36550;50.472;19.744;2022-11-20T10:37:49;97600.37;;;1.64;70.09
50302;BME280;36550;50.472;19.744;2022-11-20T10:40:38;97597.59;;;1.77;69.97
50302;BME280;36550;50.472;19.744;2022-11-20T10:43:33;97596.77;;;1.87;69.83
50302;BME280;36550;50.472;19.744;2022-11-20T10:46:22;97590.83;;;1.93;69.06
50302;BME280;36550;50.472;19.744;2022-11-20T10:49:15;97591.81;;;1.92;68.72
50302;BME280;36550;50.472;19.744;2022-11-20T10:55:50;97593.27;;;1.84;68.60
50302;BME280;36550;50.472;19.744;2022-11-20T10:58:38;97587.77;;;1.83;68.54
50302;BME280;36550;50.472;19.744;2022-11-20T11:01:42;97584.55;;;1.91;68.59
50302;BME280;36550;50.472;19.744;2022-11-20T11:04:32;97575.86;;;1.88;67.99
50302;BME280;36550;50.472;19.744;2022-11-20T11:07:33;97569.80;;;1.85;68.69
50302;BME280;36550;50.472;19.744;2022-11-20T11:10:36;97568.60;;;1.88;68.40
50302;BME280;36550;50.472;19.744;2022-11-20T11:13:27;97561.11;;;1.82;67.97
50302;BME280;36550;50.472;19.744;2022-11-20T11:16:27;97556.48;;;1.78;68.08
50302;BME280;36550;50.472;19.744;2022-11-20T11:19:13;97554.80;;;1.74;68.16
50302;BME280;36550;50.472;19.744;2022-11-20T11:21:57;97554.05;;;1.69;68.43
50302;BME280;36550;50.472;19.744;2022-11-20T11:24:51;97557.17;;;1.76;68.76
50302;BME280;36550;50.472;19.744;2022-11-20T11:27:45;97554.22;;;1.79;68.50
50302;BME280;36550;50.472;19.744;2022-11-20T11:30:43;97547.48;;;1.84;68.80
50302;BME280;36550;50.472;19.744;2022-11-20T11:33:30;97545.09;;;2.00;69.27
50302;BME280;36550;50.472;19.744;2022-11-20T11:36:22;97548.34;;;2.16;69.43
50302;BME280;36550;50.472;19.744;2022-11-20T11:39:14;97547.52;;;2.33;68.91
50302;BME280;36550;50.472;19.744;2022-11-20T11:42:00;97553.48;;;2.26;67.73
50302;BME280;36550;50.472;19.744;2022-11-20T11:44:47;97553.76;;;2.21;67.84
50302;BME280;36550;50.472;19.744;2022-11-20T11:47:50;97550.25;;;2.18;68.16
50302;BME280;36550;50.472;19.744;2022-11-20T11:50:35;97539.29;;;2.16;67.90
50302;BME280;36550;50.472;19.744;2022-11-20T11:53:21;97544.47;;;2.16;68.20
50302;BME280;36550;50.472;19.744;2022-11-20T11:56:09;97543.03;;;2.24;68.42
50302;BME280;36550;50.472;19.744;2022-11-20T11:58:57;97540.13;;;2.23;68.12
50302;BME280;36550;50.472;19.744;2022-11-20T12:01:54;97533.38;;;2.28;68.42
50302;BME280;36550;50.472;19.744;2022-11-20T12:04:54;97531.02;;;2.34;68.63
50302;BME280;36550;50.472;19.744;2022-11-20T12:07:52;97529.88;;;2.49;69.04
50302;BME280;36550;50.472;19.744;2022-11-20T12:14:03;97519.52;;;2.49;68.00
50302;BME280;36550;50.472;19.744;2022-11-20T12:16:50;97512.64;;;2.46;68.31
50302;BME280;36550;50.472;19.744;2022-11-20T12:19:36;97518.45;;;2.55;68.36
50302;BME280;36550;50.472;19.744;2022-11-20T12:22:36;97504.20;;;2.55;68.20
50302;BME280;36550;50.472;19.744;2022-11-20T12:25:27;97495.20;;;2.50;68.18
50302;BME280;36550;50.472;19.744;2022-11-20T12:28:18;97490.94;;;2.54;68.13
50302;BME280;36550;50.472;19.744;2022-11-20T12:35:05;97493.02;;;2.54;68.16
50302;BME280;36550;50.472;19.744;2022-11-20T12:44:35;97486.79;;;2.66;68.68
50302;BME280;36550;50.472;19.744;2022-11-20T12:57:50;97480.64;;;2.80;68.21
50302;BME280;36550;50.472;19.744;2022-11-20T13:01:03;97475.14;;;2.79;68.39
50302;BME280;36550;50.472;19.744;2022-11-20T13:03:51;97463.56;;;2.68;67.96
50302;BME280;36550;50.472;19.744;2022-11-20T13:06:37;97459.47;;;2.57;67.92
50302;BME280;36550;50.472;19.744;2022-11-20T13:09:22;97467.62;;;2.54;68.38
50302;BME280;36550;50.472;19.744;2022-11-20T13:18:16;97452.66;;;2.42;68.62
50302;BME280;36550;50.472;19.744;2022-11-20T13:21:01;97453.55;;;2.39;68.57
50302;BME280;36550;50.472;19.744;2022-11-20T13:23:45;97448.34;;;2.32;68.25
50302;BME280;36550;50.472;19.744;2022-11-20T13:26:30;97439.85;;;2.21;68.18
50302;BME280;36550;50.472;19.744;2022-11-20T13:29:18;97439.44;;;2.17;68.72
50302;BME280;36550;50.472;19.744;2022-11-20T13:32:13;97440.13;;;2.15;68.78
50302;BME280;36550;50.472;19.744;2022-11-20T13:35:02;97439.69;;;2.05;68.61
50302;BME280;36550;50.472;19.744;2022-11-20T13:37:59;97442.97;;;1.96;68.93
50302;BME280;36550;50.472;19.744;2022-11-20T13:40:58;97442.33;;;1.87;68.92
50302;BME280;36550;50.472;19.744;2022-11-20T13:43:44;97431.27;;;1.65;69.10
50302;BME280;36550;50.472;19.744;2022-11-20T13:46:39;97430.29;;;1.49;69.38
50302;BME280;36550;50.472;19.744;2022-11-20T13:49:29;97431.43;;;1.40;69.86
50302;BME280;36550;50.472;19.744;2022-11-20T13:52:55;97435.58;;;1.34;70.16
50302;BME280;36550;50.472;19.744;2022-11-20T13:55:43;97437.34;;;1.33;70.24
50302;BME280;36550;50.472;19.744;2022-11-20T14:01:46;97431.14;;;1.10;70.40
50302;BME280;36550;50.472;19.744;2022-11-20T14:04:35;97428.31;;;1.05;70.50
50302;BME280;36550;50.472;19.744;2022-11-20T14:07:25;97423.14;;;1.05;70.87
50302;BME280;36550;50.472;19.744;2022-11-20T14:10:28;97414.47;;;1.02;71.05
50302;BME280;36550;50.472;19.744;2022-11-20T14:13:22;97409.56;;;0.96;71.15
50302;BME280;36550;50.472;19.744;2022-11-20T14:16:06;97416.70;;;0.94;71.39
50302;BME280;36550;50.472;19.744;2022-11-20T14:18:50;97411.72;;;0.93;71.73
50302;BME280;36550;50.472;19.744;2022-11-20T14:21:34;97408.02;;;0.91;71.73
50302;BME280;36550;50.472;19.744;2022-11-20T14:24:20;97408.09;;;0.87;71.90
50302;BME280;36550;50.472;19.744;2022-11-20T14:27:15;97406.20;;;0.85;72.33
50302;BME280;36550;50.472;19.744;2022-11-20T14:30:02;97408.17;;;0.83;73.00
50302;BME280;36550;50.472;19.744;2022-11-20T14:32:48;97396.13;;;0.80;73.11
50302;BME280;36550;50.472;19.744;2022-11-20T14:35:44;97399.94;;;0.73;73.47
50302;BME280;36550;50.472;19.744;2022-11-20T14:38:28;97401.66;;;0.66;73.74
50302;BME280;36550;50.472;19.744;2022-11-20T14:41:23;97410.84;;;0.57;73.70
50302;BME280;36550;50.472;19.744;2022-11-20T14:44:09;97411.16;;;0.48;73.93
50302;BME280;36550;50.472;19.744;2022-11-20T14:46:55;97406.67;;;0.35;74.05
50302;BME280;36550;50.472;19.744;2022-11-20T14:49:40;97410.20;;;0.23;74.15
50302;BME280;36550;50.472;19.744;2022-11-20T14:52:27;97406.03;;;0.11;74.15
50302;BME280;36550;50.472;19.744;2022-11-20T14:55:13;97406.69;;;-0.02;74.60
50302;BME280;36550;50.472;19.744;2022-11-20T14:58:03;97402.12;;;-0.10;74.36
50302;BME280;36550;50.472;19.744;2022-11-20T15:00:56;97394.35;;;-0.21;74.52
50302;BME280;36550;50.472;19.744;2022-11-20T15:03:59;97394.94;;;-0.30;75.11
50302;BME280;36550;50.472;19.744;2022-11-20T15:06:54;97394.05;;;-0.37;75.28
50302;BME280;36550;50.472;19.744;2022-11-20T15:09:40;97396.69;;;-0.41;74.90
50302;BME280;36550;50.472;19.744;2022-11-20T15:12:24;97391.85;;;-0.40;74.70
50302;BME280;36550;50.472;19.744;2022-11-20T15:15:10;97387.48;;;-0.40;74.48
50302;BME280;36550;50.472;19.744;2022-11-20T15:17:56;97383.53;;;-0.46;74.21
50302;BME280;36550;50.472;19.744;2022-11-20T15:20:42;97387.13;;;-0.51;74.08
50302;BME280;36550;50.472;19.744;2022-11-20T15:23:27;97384.92;;;-0.54;74.39
50302;BME280;36550;50.472;19.744;2022-11-20T15:26:14;97383.69;;;-0.59;74.48
50302;BME280;36550;50.472;19.744;2022-11-20T15:29:01;97378.33;;;-0.57;74.58
50302;BME280;36550;50.472;19.744;2022-11-20T15:31:45;97376.58;;;-0.56;74.89
50302;BME280;36550;50.472;19.744;2022-11-20T15:34:30;97379.33;;;-0.58;74.79
50302;BME280;36550;50.472;19.744;2022-11-20T15:37:14;97369.98;;;-0.59;75.56
50302;BME280;36550;50.472;19.744;2022-11-20T15:39:58;97372.27;;;-0.60;75.86
50302;BME280;36550;50.472;19.744;2022-11-20T15:42:43;97368.23;;;-0.59;75.93
50302;BME280;36550;50.472;19.744;2022-11-20T15:45:43;97367.41;;;-0.59;76.09
50302;BME280;36550;50.472;19.744;2022-11-20T15:48:41;97368.13;;;-0.65;76.16